Terminal Aerodrome Forecast
Issued by NWS

Current Version | Previous Version | Text Only | Print | Product List | Glossary On
Versions: 1 2 3 4 5 6 7 8 9 10 11 12 13 14 15
406
FTUS46 KPDT 291127
TAFDLS
TAF
KDLS 291127Z 2912/3012 30011KT P6SM SCT070 BKN200
     FM291800 31015G25KT P6SM VCSH BKN040 OVC060
     FM292100 30020G30KT P6SM VCSH SCT040 BKN060 OVC100
     FM300000 30025G35KT P6SM SCT040 SCT100
     FM300300 29015G25KT P6SM BKN040
     FM300600 29012KT P6SM BKN040=

USA.gov is the U.S. government's official web portal to all federal, state and local government web resources and services.